Oxford, Massachusetts
Current Conditions -  °F | °C
As of 3:54 PM on Thursday 27 Nov 2014 (Local Time) from KORH Reporting Station
Overcast Overcast  
Wind Chill: 22°   Ceiling: 1300
Heat Index: 30°   Visibility: 10mi
Dew Point: 26°   Wind: 8mph
Humidity: 85%   Direction: 340°NNW
Pressure: 29.93"   Gusts: NA
Location:  42.12°N, 71.86°W
Report Text: KORH 272054Z AUTO 34007KT 10SM OVC013 M01/M03 A2993 RMK AO2 SLP147 T10111033 53006
Loading
Personal Weather Stations






























Interactive Weather Map New forecast layout! Learn more

10-Day Weather Forecast

Advertisements
Track Severe Weather on mobile